sensor_id;sensor_type;location;lat;lon;timestamp;P1;durP1;ratioP1;P2;durP2;ratioP2
56730;SDS011;42613;47.424;8.560;2023-06-10T00:02:10;4.65;;;2.50;;
56730;SDS011;42613;47.424;8.560;2023-06-10T00:04:35;5.47;;;2.92;;
56730;SDS011;42613;47.424;8.560;2023-06-10T00:07:02;5.35;;;2.90;;
56730;SDS011;42613;47.424;8.560;2023-06-10T00:09:29;6.47;;;2.60;;
56730;SDS011;42613;47.424;8.560;2023-06-10T00:11:54;3.10;;;2.58;;
56730;SDS011;42613;47.424;8.560;2023-06-10T00:14:19;3.85;;;3.00;;
56730;SDS011;42613;47.424;8.560;2023-06-10T00:16:45;3.10;;;2.80;;
56730;SDS011;42613;47.424;8.560;2023-06-10T00:19:10;2.70;;;2.50;;
56730;SDS011;42613;47.424;8.560;2023-06-10T00:21:38;3.30;;;2.78;;
56730;SDS011;42613;47.424;8.560;2023-06-10T00:24:05;4.57;;;2.90;;
56730;SDS011;42613;47.424;8.560;2023-06-10T00:26:32;4.45;;;3.00;;
56730;SDS011;42613;47.424;8.560;2023-06-10T00:28:58;4.47;;;2.65;;
56730;SDS011;42613;47.424;8.560;2023-06-10T00:31:23;4.05;;;2.65;;
56730;SDS011;42613;47.424;8.560;2023-06-10T00:33:49;6.13;;;2.83;;
56730;SDS011;42613;47.424;8.560;2023-06-10T00:36:14;4.00;;;2.73;;
56730;SDS011;42613;47.424;8.560;2023-06-10T00:38:39;3.22;;;2.92;;
56730;SDS011;42613;47.424;8.560;2023-06-10T00:41:06;7.05;;;3.03;;
56730;SDS011;42613;47.424;8.560;2023-06-10T00:43:32;6.47;;;3.40;;
56730;SDS011;42613;47.424;8.560;2023-06-10T00:45:57;7.78;;;3.03;;
56730;SDS011;42613;47.424;8.560;2023-06-10T00:48:23;4.20;;;2.83;;
56730;SDS011;42613;47.424;8.560;2023-06-10T00:50:48;4.90;;;2.90;;
56730;SDS011;42613;47.424;8.560;2023-06-10T00:53:14;4.53;;;3.03;;
56730;SDS011;42613;47.424;8.560;2023-06-10T00:55:40;2.83;;;2.42;;
56730;SDS011;42613;47.424;8.560;2023-06-10T00:58:06;7.53;;;3.08;;
56730;SDS011;42613;47.424;8.560;2023-06-10T01:00:32;3.70;;;2.92;;
56730;SDS011;42613;47.424;8.560;2023-06-10T01:02:58;8.07;;;3.58;;
56730;SDS011;42613;47.424;8.560;2023-06-10T01:05:23;4.40;;;2.90;;
56730;SDS011;42613;47.424;8.560;2023-06-10T01:11:01;4.63;;;3.00;;
56730;SDS011;42613;47.424;8.560;2023-06-10T01:13:32;5.50;;;3.38;;
56730;SDS011;42613;47.424;8.560;2023-06-10T01:16:00;4.07;;;3.10;;
56730;SDS011;42613;47.424;8.560;2023-06-10T01:18:29;4.05;;;2.80;;
56730;SDS011;42613;47.424;8.560;2023-06-10T01:20:56;3.47;;;2.77;;
56730;SDS011;42613;47.424;8.560;2023-06-10T01:23:21;5.60;;;2.92;;
56730;SDS011;42613;47.424;8.560;2023-06-10T01:25:57;4.85;;;2.47;;
56730;SDS011;42613;47.424;8.560;2023-06-10T01:28:36;3.05;;;2.75;;
56730;SDS011;42613;47.424;8.560;2023-06-10T01:33:50;3.75;;;3.10;;
56730;SDS011;42613;47.424;8.560;2023-06-10T01:36:17;3.47;;;3.10;;
56730;SDS011;42613;47.424;8.560;2023-06-10T01:38:44;4.05;;;3.40;;
56730;SDS011;42613;47.424;8.560;2023-06-10T01:41:13;3.97;;;3.40;;
56730;SDS011;42613;47.424;8.560;2023-06-10T01:43:42;3.47;;;3.03;;
56730;SDS011;42613;47.424;8.560;2023-06-10T01:46:08;4.85;;;3.00;;
56730;SDS011;42613;47.424;8.560;2023-06-10T01:48:33;3.72;;;3.00;;
56730;SDS011;42613;47.424;8.560;2023-06-10T01:50:59;5.10;;;3.28;;
56730;SDS011;42613;47.424;8.560;2023-06-10T01:53:24;6.15;;;3.60;;
56730;SDS011;42613;47.424;8.560;2023-06-10T01:55:50;4.05;;;3.10;;
56730;SDS011;42613;47.424;8.560;2023-06-10T01:58:15;6.20;;;3.10;;
56730;SDS011;42613;47.424;8.560;2023-06-10T02:00:41;5.57;;;3.42;;
56730;SDS011;42613;47.424;8.560;2023-06-10T02:03:06;3.10;;;2.80;;
56730;SDS011;42613;47.424;8.560;2023-06-10T02:05:31;4.72;;;3.13;;
56730;SDS011;42613;47.424;8.560;2023-06-10T02:07:57;5.40;;;3.03;;
56730;SDS011;42613;47.424;8.560;2023-06-10T02:10:22;4.80;;;3.30;;
56730;SDS011;42613;47.424;8.560;2023-06-10T02:12:47;3.78;;;2.95;;
56730;SDS011;42613;47.424;8.560;2023-06-10T02:15:13;6.75;;;3.65;;
56730;SDS011;42613;47.424;8.560;2023-06-10T02:17:38;2.75;;;2.50;;
56730;SDS011;42613;47.424;8.560;2023-06-10T02:20:04;8.65;;;3.60;;
56730;SDS011;42613;47.424;8.560;2023-06-10T02:22:32;4.53;;;3.38;;
56730;SDS011;42613;47.424;8.560;2023-06-10T02:24:58;4.88;;;3.28;;
56730;SDS011;42613;47.424;8.560;2023-06-10T02:27:23;3.78;;;3.15;;
56730;SDS011;42613;47.424;8.560;2023-06-10T02:29:49;4.75;;;3.10;;
56730;SDS011;42613;47.424;8.560;2023-06-10T02:32:15;4.63;;;3.03;;
56730;SDS011;42613;47.424;8.560;2023-06-10T02:34:40;4.60;;;3.20;;
56730;SDS011;42613;47.424;8.560;2023-06-10T02:37:07;6.32;;;3.63;;
56730;SDS011;42613;47.424;8.560;2023-06-10T02:39:33;6.90;;;3.80;;
56730;SDS011;42613;47.424;8.560;2023-06-10T02:41:59;6.80;;;3.28;;
56730;SDS011;42613;47.424;8.560;2023-06-10T02:44:24;4.38;;;3.50;;
56730;SDS011;42613;47.424;8.560;2023-06-10T02:46:50;4.13;;;3.40;;
56730;SDS011;42613;47.424;8.560;2023-06-10T02:49:15;5.22;;;2.97;;
56730;SDS011;42613;47.424;8.560;2023-06-10T02:51:40;4.45;;;3.10;;
56730;SDS011;42613;47.424;8.560;2023-06-10T02:54:06;5.05;;;3.00;;
56730;SDS011;42613;47.424;8.560;2023-06-10T02:56:31;4.75;;;3.35;;
56730;SDS011;42613;47.424;8.560;2023-06-10T02:58:58;5.05;;;3.28;;
56730;SDS011;42613;47.424;8.560;2023-06-10T03:01:23;3.47;;;3.10;;
56730;SDS011;42613;47.424;8.560;2023-06-10T03:03:48;6.65;;;3.45;;
56730;SDS011;42613;47.424;8.560;2023-06-10T03:06:15;3.80;;;3.10;;
56730;SDS011;42613;47.424;8.560;2023-06-10T03:08:41;3.88;;;3.17;;
56730;SDS011;42613;47.424;8.560;2023-06-10T03:11:06;3.30;;;3.03;;
56730;SDS011;42613;47.424;8.560;2023-06-10T03:13:31;4.10;;;3.42;;
56730;SDS011;42613;47.424;8.560;2023-06-10T03:15:57;5.40;;;3.53;;
56730;SDS011;42613;47.424;8.560;2023-06-10T03:18:25;4.40;;;3.58;;
56730;SDS011;42613;47.424;8.560;2023-06-10T03:20:52;5.05;;;3.88;;
56730;SDS011;42613;47.424;8.560;2023-06-10T03:23:17;8.20;;;3.70;;
56730;SDS011;42613;47.424;8.560;2023-06-10T03:25:43;3.60;;;3.30;;
56730;SDS011;42613;47.424;8.560;2023-06-10T03:28:09;4.55;;;3.20;;
56730;SDS011;42613;47.424;8.560;2023-06-10T03:30:34;5.82;;;3.72;;
56730;SDS011;42613;47.424;8.560;2023-06-10T03:33:00;3.22;;;2.92;;
56730;SDS011;42613;47.424;8.560;2023-06-10T03:35:25;5.63;;;3.80;;
56730;SDS011;42613;47.424;8.560;2023-06-10T03:37:51;4.20;;;3.30;;
56730;SDS011;42613;47.424;8.560;2023-06-10T03:40:16;5.00;;;3.38;;
56730;SDS011;42613;47.424;8.560;2023-06-10T03:42:41;4.03;;;3.40;;
56730;SDS011;42613;47.424;8.560;2023-06-10T03:45:09;4.22;;;3.35;;
56730;SDS011;42613;47.424;8.560;2023-06-10T03:47:35;5.25;;;3.97;;
56730;SDS011;42613;47.424;8.560;2023-06-10T03:50:02;7.90;;;4.25;;
56730;SDS011;42613;47.424;8.560;2023-06-10T03:52:30;6.72;;;3.92;;
56730;SDS011;42613;47.424;8.560;2023-06-10T03:54:55;5.38;;;3.70;;
56730;SDS011;42613;47.424;8.560;2023-06-10T03:57:20;5.53;;;3.72;;
56730;SDS011;42613;47.424;8.560;2023-06-10T03:59:46;4.77;;;3.87;;
56730;SDS011;42613;47.424;8.560;2023-06-10T04:02:11;6.45;;;3.42;;
56730;SDS011;42613;47.424;8.560;2023-06-10T04:04:36;4.70;;;3.87;;
56730;SDS011;42613;47.424;8.560;2023-06-10T04:07:02;4.38;;;3.20;;
56730;SDS011;42613;47.424;8.560;2023-06-10T04:09:29;4.63;;;3.60;;
56730;SDS011;42613;47.424;8.560;2023-06-10T04:11:54;8.15;;;4.25;;
56730;SDS011;42613;47.424;8.560;2023-06-10T04:14:19;8.27;;;4.03;;
56730;SDS011;42613;47.424;8.560;2023-06-10T04:16:45;5.80;;;4.13;;
56730;SDS011;42613;47.424;8.560;2023-06-10T04:19:10;4.30;;;3.90;;
56730;SDS011;42613;47.424;8.560;2023-06-10T04:21:35;7.40;;;3.88;;
56730;SDS011;42613;47.424;8.560;2023-06-10T04:24:01;9.48;;;4.50;;
56730;SDS011;42613;47.424;8.560;2023-06-10T04:26:26;5.65;;;4.50;;
56730;SDS011;42613;47.424;8.560;2023-06-10T04:28:52;8.20;;;3.83;;
56730;SDS011;42613;47.424;8.560;2023-06-10T04:31:18;4.55;;;3.55;;
56730;SDS011;42613;47.424;8.560;2023-06-10T04:33:44;4.05;;;3.67;;
56730;SDS011;42613;47.424;8.560;2023-06-10T04:36:09;9.00;;;3.72;;
56730;SDS011;42613;47.424;8.560;2023-06-10T04:38:35;7.30;;;4.10;;
56730;SDS011;42613;47.424;8.560;2023-06-10T04:41:00;5.63;;;4.20;;
56730;SDS011;42613;47.424;8.560;2023-06-10T04:43:25;5.30;;;3.88;;
56730;SDS011;42613;47.424;8.560;2023-06-10T04:45:53;5.47;;;3.95;;
56730;SDS011;42613;47.424;8.560;2023-06-10T04:48:18;6.40;;;4.63;;
56730;SDS011;42613;47.424;8.560;2023-06-10T04:50:44;6.17;;;3.70;;
56730;SDS011;42613;47.424;8.560;2023-06-10T04:53:09;7.95;;;3.80;;
56730;SDS011;42613;47.424;8.560;2023-06-10T04:55:34;5.95;;;4.22;;
56730;SDS011;42613;47.424;8.560;2023-06-10T04:58:01;10.80;;;4.07;;
56730;SDS011;42613;47.424;8.560;2023-06-10T05:00:26;4.22;;;3.33;;
56730;SDS011;42613;47.424;8.560;2023-06-10T05:02:52;4.57;;;4.07;;
56730;SDS011;42613;47.424;8.560;2023-06-10T05:05:18;4.35;;;3.83;;
56730;SDS011;42613;47.424;8.560;2023-06-10T05:07:43;6.22;;;4.03;;
56730;SDS011;42613;47.424;8.560;2023-06-10T05:10:09;5.50;;;3.83;;
56730;SDS011;42613;47.424;8.560;2023-06-10T05:12:37;8.88;;;4.28;;
56730;SDS011;42613;47.424;8.560;2023-06-10T05:15:04;9.88;;;4.13;;
56730;SDS011;42613;47.424;8.560;2023-06-10T05:17:30;8.20;;;4.00;;
56730;SDS011;42613;47.424;8.560;2023-06-10T05:19:56;4.95;;;3.53;;
56730;SDS011;42613;47.424;8.560;2023-06-10T05:22:21;6.90;;;3.72;;
56730;SDS011;42613;47.424;8.560;2023-06-10T05:24:49;7.45;;;3.60;;
56730;SDS011;42613;47.424;8.560;2023-06-10T05:27:14;6.07;;;3.90;;
56730;SDS011;42613;47.424;8.560;2023-06-10T05:29:40;6.75;;;4.93;;
56730;SDS011;42613;47.424;8.560;2023-06-10T05:32:05;4.97;;;4.47;;
56730;SDS011;42613;47.424;8.560;2023-06-10T05:34:31;3.95;;;3.55;;
56730;SDS011;42613;47.424;8.560;2023-06-10T05:36:57;5.03;;;4.20;;
56730;SDS011;42613;47.424;8.560;2023-06-10T05:39:22;4.82;;;3.88;;
56730;SDS011;42613;47.424;8.560;2023-06-10T05:41:48;5.18;;;4.20;;
56730;SDS011;42613;47.424;8.560;2023-06-10T05:44:13;9.95;;;3.97;;
56730;SDS011;42613;47.424;8.560;2023-06-10T05:46:38;5.93;;;4.13;;
56730;SDS011;42613;47.424;8.560;2023-06-10T05:49:04;6.35;;;3.92;;
56730;SDS011;42613;47.424;8.560;2023-06-10T05:51:29;5.68;;;4.10;;
56730;SDS011;42613;47.424;8.560;2023-06-10T05:53:55;6.95;;;4.80;;
56730;SDS011;42613;47.424;8.560;2023-06-10T05:56:20;4.72;;;3.92;;
56730;SDS011;42613;47.424;8.560;2023-06-10T05:58:47;9.18;;;4.75;;
56730;SDS011;42613;47.424;8.560;2023-06-10T06:01:13;6.78;;;4.10;;
56730;SDS011;42613;47.424;8.560;2023-06-10T06:03:39;4.43;;;3.70;;
56730;SDS011;42613;47.424;8.560;2023-06-10T06:06:04;9.07;;;4.43;;
56730;SDS011;42613;47.424;8.560;2023-06-10T06:08:32;6.25;;;3.97;;
56730;SDS011;42613;47.424;8.560;2023-06-10T06:10:58;6.63;;;3.72;;
56730;SDS011;42613;47.424;8.560;2023-06-10T06:13:23;4.72;;;3.65;;
56730;SDS011;42613;47.424;8.560;2023-06-10T06:15:49;4.38;;;3.70;;
56730;SDS011;42613;47.424;8.560;2023-06-10T06:18:14;4.47;;;4.03;;
56730;SDS011;42613;47.424;8.560;2023-06-10T06:20:40;4.30;;;3.80;;
56730;SDS011;42613;47.424;8.560;2023-06-10T06:23:05;4.93;;;4.15;;
56730;SDS011;42613;47.424;8.560;2023-06-10T06:25:31;6.10;;;4.22;;
56730;SDS011;42613;47.424;8.560;2023-06-10T06:27:57;5.68;;;3.88;;
56730;SDS011;42613;47.424;8.560;2023-06-10T06:30:22;5.10;;;3.80;;
56730;SDS011;42613;47.424;8.560;2023-06-10T06:32:47;5.28;;;3.83;;
56730;SDS011;42613;47.424;8.560;2023-06-10T06:35:13;5.13;;;4.60;;
56730;SDS011;42613;47.424;8.560;2023-06-10T06:37:38;4.25;;;3.85;;
56730;SDS011;42613;47.424;8.560;2023-06-10T06:40:03;5.47;;;4.50;;
56730;SDS011;42613;47.424;8.560;2023-06-10T06:42:30;6.10;;;4.40;;
56730;SDS011;42613;47.424;8.560;2023-06-10T06:44:55;6.88;;;5.45;;
56730;SDS011;42613;47.424;8.560;2023-06-10T06:47:20;6.10;;;4.20;;
56730;SDS011;42613;47.424;8.560;2023-06-10T06:49:46;6.50;;;4.60;;
56730;SDS011;42613;47.424;8.560;2023-06-10T06:52:12;9.13;;;4.15;;
56730;SDS011;42613;47.424;8.560;2023-06-10T06:54:37;6.85;;;4.70;;
56730;SDS011;42613;47.424;8.560;2023-06-10T06:57:03;6.40;;;4.38;;
56730;SDS011;42613;47.424;8.560;2023-06-10T06:59:28;6.25;;;4.63;;
56730;SDS011;42613;47.424;8.560;2023-06-10T07:01:54;4.20;;;3.80;;
56730;SDS011;42613;47.424;8.560;2023-06-10T07:04:20;4.85;;;3.75;;
56730;SDS011;42613;47.424;8.560;2023-06-10T07:06:47;4.57;;;3.65;;
56730;SDS011;42613;47.424;8.560;2023-06-10T07:09:14;5.35;;;4.35;;
56730;SDS011;42613;47.424;8.560;2023-06-10T07:11:39;4.80;;;4.38;;
56730;SDS011;42613;47.424;8.560;2023-06-10T07:14:06;6.95;;;3.95;;
56730;SDS011;42613;47.424;8.560;2023-06-10T07:16:31;5.30;;;4.75;;
56730;SDS011;42613;47.424;8.560;2023-06-10T07:18:57;4.68;;;4.28;;
56730;SDS011;42613;47.424;8.560;2023-06-10T07:21:25;4.47;;;4.07;;
56730;SDS011;42613;47.424;8.560;2023-06-10T07:23:50;4.82;;;4.07;;
56730;SDS011;42613;47.424;8.560;2023-06-10T07:26:19;5.00;;;4.22;;
56730;SDS011;42613;47.424;8.560;2023-06-10T07:28:44;6.18;;;4.35;;
56730;SDS011;42613;47.424;8.560;2023-06-10T07:31:09;4.57;;;3.72;;
56730;SDS011;42613;47.424;8.560;2023-06-10T07:33:36;6.38;;;4.63;;
56730;SDS011;42613;47.424;8.560;2023-06-10T07:36:04;6.65;;;4.80;;
56730;SDS011;42613;47.424;8.560;2023-06-10T07:38:30;9.23;;;5.53;;
56730;SDS011;42613;47.424;8.560;2023-06-10T07:40:55;4.93;;;4.53;;
56730;SDS011;42613;47.424;8.560;2023-06-10T07:43:20;5.80;;;4.50;;
56730;SDS011;42613;47.424;8.560;2023-06-10T07:45:45;8.60;;;4.68;;
56730;SDS011;42613;47.424;8.560;2023-06-10T07:48:11;7.80;;;4.03;;
56730;SDS011;42613;47.424;8.560;2023-06-10T07:50:36;7.07;;;5.00;;
56730;SDS011;42613;47.424;8.560;2023-06-10T07:53:02;5.10;;;4.07;;
56730;SDS011;42613;47.424;8.560;2023-06-10T07:55:28;5.68;;;4.60;;
56730;SDS011;42613;47.424;8.560;2023-06-10T07:57:54;8.63;;;4.85;;
56730;SDS011;42613;47.424;8.560;2023-06-10T08:00:20;4.90;;;3.85;;
56730;SDS011;42613;47.424;8.560;2023-06-10T08:02:46;7.88;;;5.07;;
56730;SDS011;42613;47.424;8.560;2023-06-10T08:05:11;5.60;;;4.53;;
56730;SDS011;42613;47.424;8.560;2023-06-10T08:07:37;5.38;;;4.88;;
56730;SDS011;42613;47.424;8.560;2023-06-10T08:10:03;4.95;;;4.32;;
56730;SDS011;42613;47.424;8.560;2023-06-10T08:12:31;8.25;;;4.70;;
56730;SDS011;42613;47.424;8.560;2023-06-10T08:14:57;7.30;;;4.50;;
56730;SDS011;42613;47.424;8.560;2023-06-10T08:17:23;7.40;;;4.68;;
56730;SDS011;42613;47.424;8.560;2023-06-10T08:19:49;6.07;;;4.38;;
56730;SDS011;42613;47.424;8.560;2023-06-10T08:22:14;7.15;;;5.78;;
56730;SDS011;42613;47.424;8.560;2023-06-10T08:24:40;5.93;;;4.20;;
56730;SDS011;42613;47.424;8.560;2023-06-10T08:27:05;4.55;;;4.13;;
56730;SDS011;42613;47.424;8.560;2023-06-10T08:29:31;4.82;;;4.10;;
56730;SDS011;42613;47.424;8.560;2023-06-10T08:31:56;8.05;;;5.05;;
56730;SDS011;42613;47.424;8.560;2023-06-10T08:34:22;6.57;;;5.03;;
56730;SDS011;42613;47.424;8.560;2023-06-10T08:36:47;6.13;;;4.43;;
56730;SDS011;42613;47.424;8.560;2023-06-10T08:39:18;6.30;;;5.10;;
56730;SDS011;42613;47.424;8.560;2023-06-10T08:41:43;5.63;;;4.63;;
56730;SDS011;42613;47.424;8.560;2023-06-10T08:44:17;5.18;;;4.38;;
56730;SDS011;42613;47.424;8.560;2023-06-10T08:46:47;4.95;;;4.55;;
56730;SDS011;42613;47.424;8.560;2023-06-10T08:49:17;5.43;;;4.85;;
56730;SDS011;42613;47.424;8.560;2023-06-10T08:51:48;5.25;;;4.10;;
56730;SDS011;42613;47.424;8.560;2023-06-10T08:54:17;5.78;;;4.65;;
56730;SDS011;42613;47.424;8.560;2023-06-10T08:56:45;5.40;;;4.30;;
56730;SDS011;42613;47.424;8.560;2023-06-10T08:59:15;5.40;;;4.75;;
56730;SDS011;42613;47.424;8.560;2023-06-10T09:01:43;4.43;;;4.03;;
56730;SDS011;42613;47.424;8.560;2023-06-10T09:04:09;6.50;;;5.22;;
56730;SDS011;42613;47.424;8.560;2023-06-10T09:06:35;5.78;;;4.60;;
56730;SDS011;42613;47.424;8.560;2023-06-10T09:09:03;6.25;;;4.40;;
56730;SDS011;42613;47.424;8.560;2023-06-10T09:11:31;5.10;;;4.00;;
56730;SDS011;42613;47.424;8.560;2023-06-10T09:13:56;3.83;;;3.53;;
56730;SDS011;42613;47.424;8.560;2023-06-10T09:16:22;6.20;;;4.63;;
56730;SDS011;42613;47.424;8.560;2023-06-10T09:18:49;4.15;;;3.50;;
56730;SDS011;42613;47.424;8.560;2023-06-10T09:21:19;6.15;;;4.35;;
56730;SDS011;42613;47.424;8.560;2023-06-10T09:23:46;4.70;;;4.15;;
56730;SDS011;42613;47.424;8.560;2023-06-10T09:26:12;6.07;;;3.97;;
56730;SDS011;42613;47.424;8.560;2023-06-10T09:28:37;8.05;;;4.63;;
56730;SDS011;42613;47.424;8.560;2023-06-10T09:31:04;5.63;;;4.40;;
56730;SDS011;42613;47.424;8.560;2023-06-10T09:33:32;5.30;;;4.13;;
56730;SDS011;42613;47.424;8.560;2023-06-10T09:35:57;5.65;;;3.90;;
56730;SDS011;42613;47.424;8.560;2023-06-10T09:38:29;5.60;;;4.90;;
56730;SDS011;42613;47.424;8.560;2023-06-10T09:40:55;6.50;;;5.00;;
56730;SDS011;42613;47.424;8.560;2023-06-10T09:43:21;5.35;;;4.18;;
56730;SDS011;42613;47.424;8.560;2023-06-10T09:45:47;4.88;;;4.30;;
56730;SDS011;42613;47.424;8.560;2023-06-10T09:48:13;6.15;;;4.28;;
56730;SDS011;42613;47.424;8.560;2023-06-10T09:50:42;4.75;;;4.22;;
56730;SDS011;42613;47.424;8.560;2023-06-10T09:53:09;4.25;;;3.85;;
56730;SDS011;42613;47.424;8.560;2023-06-10T09:55:37;5.20;;;3.88;;
56730;SDS011;42613;47.424;8.560;2023-06-10T09:58:03;6.57;;;4.05;;
56730;SDS011;42613;47.424;8.560;2023-06-10T10:00:28;4.57;;;4.10;;
56730;SDS011;42613;47.424;8.560;2023-06-10T10:02:57;4.72;;;3.67;;
56730;SDS011;42613;47.424;8.560;2023-06-10T10:05:23;5.78;;;4.50;;
56730;SDS011;42613;47.424;8.560;2023-06-10T10:07:49;5.13;;;4.63;;
56730;SDS011;42613;47.424;8.560;2023-06-10T10:10:18;4.63;;;4.07;;
56730;SDS011;42613;47.424;8.560;2023-06-10T10:12:54;4.40;;;4.00;;
56730;SDS011;42613;47.424;8.560;2023-06-10T10:15:23;8.13;;;3.88;;
56730;SDS011;42613;47.424;8.560;2023-06-10T10:18:06;6.82;;;4.55;;
56730;SDS011;42613;47.424;8.560;2023-06-10T10:20:33;5.38;;;4.68;;
56730;SDS011;42613;47.424;8.560;2023-06-10T10:22:59;5.28;;;4.20;;
56730;SDS011;42613;47.424;8.560;2023-06-10T10:25:30;7.07;;;4.70;;
56730;SDS011;42613;47.424;8.560;2023-06-10T10:28:02;6.32;;;4.28;;
56730;SDS011;42613;47.424;8.560;2023-06-10T10:30:34;7.32;;;4.72;;
56730;SDS011;42613;47.424;8.560;2023-06-10T10:33:06;4.72;;;3.47;;
56730;SDS011;42613;47.424;8.560;2023-06-10T10:35:37;7.15;;;4.40;;
56730;SDS011;42613;47.424;8.560;2023-06-10T10:38:04;7.90;;;4.40;;
56730;SDS011;42613;47.424;8.560;2023-06-10T10:40:30;8.63;;;4.60;;
56730;SDS011;42613;47.424;8.560;2023-06-10T10:42:57;4.65;;;4.15;;
56730;SDS011;42613;47.424;8.560;2023-06-10T10:45:24;5.35;;;4.25;;
56730;SDS011;42613;47.424;8.560;2023-06-10T10:47:53;4.97;;;3.80;;
56730;SDS011;42613;47.424;8.560;2023-06-10T10:50:20;4.82;;;4.13;;
56730;SDS011;42613;47.424;8.560;2023-06-10T10:52:51;4.45;;;4.05;;
56730;SDS011;42613;47.424;8.560;2023-06-10T10:55:19;8.25;;;3.90;;
56730;SDS011;42613;47.424;8.560;2023-06-10T10:57:44;4.38;;;3.83;;
56730;SDS011;42613;47.424;8.560;2023-06-10T11:00:29;4.30;;;3.58;;
56730;SDS011;42613;47.424;8.560;2023-06-10T11:03:04;6.60;;;4.13;;
56730;SDS011;42613;47.424;8.560;2023-06-10T11:08:13;6.25;;;3.72;;
56730;SDS011;42613;47.424;8.560;2023-06-10T11:10:41;6.10;;;3.85;;
56730;SDS011;42613;47.424;8.560;2023-06-10T11:13:15;4.97;;;4.03;;
56730;SDS011;42613;47.424;8.560;2023-06-10T11:15:44;3.95;;;3.53;;
56730;SDS011;42613;47.424;8.560;2023-06-10T11:20:46;3.85;;;3.50;;
56730;SDS011;42613;47.424;8.560;2023-06-10T11:29:04;4.25;;;3.70;;
56730;SDS011;42613;47.424;8.560;2023-06-10T11:31:31;4.15;;;3.70;;
56730;SDS011;42613;47.424;8.560;2023-06-10T11:33:59;5.28;;;3.67;;
56730;SDS011;42613;47.424;8.560;2023-06-10T11:36:25;5.63;;;3.85;;
56730;SDS011;42613;47.424;8.560;2023-06-10T11:38:56;5.07;;;3.83;;
56730;SDS011;42613;47.424;8.560;2023-06-10T11:41:26;4.07;;;3.67;;
56730;SDS011;42613;47.424;8.560;2023-06-10T11:43:53;4.18;;;3.78;;
56730;SDS011;42613;47.424;8.560;2023-06-10T11:46:20;4.13;;;3.50;;
56730;SDS011;42613;47.424;8.560;2023-06-10T11:48:53;5.85;;;4.30;;
56730;SDS011;42613;47.424;8.560;2023-06-10T11:51:24;6.05;;;3.75;;
56730;SDS011;42613;47.424;8.560;2023-06-10T11:53:50;4.45;;;3.45;;
56730;SDS011;42613;47.424;8.560;2023-06-10T11:56:20;5.18;;;3.38;;
56730;SDS011;42613;47.424;8.560;2023-06-10T11:58:54;3.80;;;3.20;;
56730;SDS011;42613;47.424;8.560;2023-06-10T12:01:24;4.95;;;3.95;;
56730;SDS011;42613;47.424;8.560;2023-06-10T12:04:24;5.43;;;4.13;;
56730;SDS011;42613;47.424;8.560;2023-06-10T12:06:50;4.05;;;3.65;;
56730;SDS011;42613;47.424;8.560;2023-06-10T12:09:20;4.72;;;2.83;;
56730;SDS011;42613;47.424;8.560;2023-06-10T12:12:05;3.42;;;3.03;;
56730;SDS011;42613;47.424;8.560;2023-06-10T12:17:20;9.35;;;3.60;;
56730;SDS011;42613;47.424;8.560;2023-06-10T12:20:02;5.40;;;3.65;;
56730;SDS011;42613;47.424;8.560;2023-06-10T12:22:42;6.22;;;3.10;;
56730;SDS011;42613;47.424;8.560;2023-06-10T12:25:09;4.78;;;3.33;;
56730;SDS011;42613;47.424;8.560;2023-06-10T12:27:36;4.82;;;3.85;;
56730;SDS011;42613;47.424;8.560;2023-06-10T12:30:02;5.00;;;3.65;;
56730;SDS011;42613;47.424;8.560;2023-06-10T12:32:37;3.53;;;3.13;;
56730;SDS011;42613;47.424;8.560;2023-06-10T12:35:04;4.20;;;3.38;;
56730;SDS011;42613;47.424;8.560;2023-06-10T12:37:31;3.78;;;2.92;;
56730;SDS011;42613;47.424;8.560;2023-06-10T12:40:02;3.72;;;3.20;;
56730;SDS011;42613;47.424;8.560;2023-06-10T12:42:31;4.72;;;3.20;;
56730;SDS011;42613;47.424;8.560;2023-06-10T12:44:59;4.18;;;3.03;;
56730;SDS011;42613;47.424;8.560;2023-06-10T12:47:30;3.83;;;3.35;;
56730;SDS011;42613;47.424;8.560;2023-06-10T12:49:58;3.38;;;2.92;;
56730;SDS011;42613;47.424;8.560;2023-06-10T12:52:24;3.72;;;3.17;;
56730;SDS011;42613;47.424;8.560;2023-06-10T12:54:50;4.32;;;3.20;;
56730;SDS011;42613;47.424;8.560;2023-06-10T12:57:16;5.13;;;3.60;;
56730;SDS011;42613;47.424;8.560;2023-06-10T12:59:42;3.60;;;3.22;;
56730;SDS011;42613;47.424;8.560;2023-06-10T13:02:14;3.17;;;2.88;;
56730;SDS011;42613;47.424;8.560;2023-06-10T13:04:40;3.75;;;3.45;;
56730;SDS011;42613;47.424;8.560;2023-06-10T13:07:05;4.22;;;3.20;;
56730;SDS011;42613;47.424;8.560;2023-06-10T13:09:31;3.08;;;2.75;;
56730;SDS011;42613;47.424;8.560;2023-06-10T13:11:56;5.18;;;3.35;;
56730;SDS011;42613;47.424;8.560;2023-06-10T13:14:22;3.33;;;3.03;;
56730;SDS011;42613;47.424;8.560;2023-06-10T13:16:47;3.28;;;2.97;;
56730;SDS011;42613;47.424;8.560;2023-06-10T13:19:12;4.82;;;3.13;;
56730;SDS011;42613;47.424;8.560;2023-06-10T13:21:38;3.47;;;3.17;;
56730;SDS011;42613;47.424;8.560;2023-06-10T13:24:03;3.78;;;3.30;;
56730;SDS011;42613;47.424;8.560;2023-06-10T13:26:29;4.07;;;3.15;;
56730;SDS011;42613;47.424;8.560;2023-06-10T13:28:54;4.03;;;3.50;;
56730;SDS011;42613;47.424;8.560;2023-06-10T13:31:20;4.80;;;3.33;;
56730;SDS011;42613;47.424;8.560;2023-06-10T13:33:46;5.07;;;3.53;;
56730;SDS011;42613;47.424;8.560;2023-06-10T13:36:12;4.07;;;3.40;;
56730;SDS011;42613;47.424;8.560;2023-06-10T13:38:37;3.35;;;3.10;;
56730;SDS011;42613;47.424;8.560;2023-06-10T13:41:03;3.08;;;2.78;;
56730;SDS011;42613;47.424;8.560;2023-06-10T13:43:28;4.35;;;3.35;;
56730;SDS011;42613;47.424;8.560;2023-06-10T13:45:54;2.97;;;2.75;;
56730;SDS011;42613;47.424;8.560;2023-06-10T13:48:19;4.75;;;2.85;;
56730;SDS011;42613;47.424;8.560;2023-06-10T13:50:45;7.10;;;3.60;;
56730;SDS011;42613;47.424;8.560;2023-06-10T13:53:11;3.05;;;2.80;;
56730;SDS011;42613;47.424;8.560;2023-06-10T13:55:36;3.15;;;2.85;;
56730;SDS011;42613;47.424;8.560;2023-06-10T13:58:02;2.90;;;2.60;;
56730;SDS011;42613;47.424;8.560;2023-06-10T14:00:28;4.03;;;2.95;;
56730;SDS011;42613;47.424;8.560;2023-06-10T14:02:53;3.42;;;3.10;;
56730;SDS011;42613;47.424;8.560;2023-06-10T14:05:18;3.85;;;3.40;;
56730;SDS011;42613;47.424;8.560;2023-06-10T14:07:44;3.33;;;2.60;;
56730;SDS011;42613;47.424;8.560;2023-06-10T14:10:09;3.65;;;3.28;;
56730;SDS011;42613;47.424;8.560;2023-06-10T14:12:35;3.00;;;2.60;;
56730;SDS011;42613;47.424;8.560;2023-06-10T14:15:00;3.90;;;3.00;;
56730;SDS011;42613;47.424;8.560;2023-06-10T14:17:26;3.10;;;2.80;;
56730;SDS011;42613;47.424;8.560;2023-06-10T14:19:52;2.90;;;2.65;;
56730;SDS011;42613;47.424;8.560;2023-06-10T14:22:17;3.03;;;2.72;;
56730;SDS011;42613;47.424;8.560;2023-06-10T14:24:42;3.17;;;2.85;;
56730;SDS011;42613;47.424;8.560;2023-06-10T14:27:08;5.10;;;3.47;;
56730;SDS011;42613;47.424;8.560;2023-06-10T14:29:33;3.20;;;2.93;;
56730;SDS011;42613;47.424;8.560;2023-06-10T14:31:59;2.65;;;2.45;;
56730;SDS011;42613;47.424;8.560;2023-06-10T14:34:24;3.78;;;2.90;;
56730;SDS011;42613;47.424;8.560;2023-06-10T14:36:53;3.35;;;2.72;;
56730;SDS011;42613;47.424;8.560;2023-06-10T14:39:19;2.60;;;2.40;;
56730;SDS011;42613;47.424;8.560;2023-06-10T14:41:45;3.15;;;2.63;;
56730;SDS011;42613;47.424;8.560;2023-06-10T14:44:10;3.30;;;2.72;;
56730;SDS011;42613;47.424;8.560;2023-06-10T14:46:35;3.50;;;2.60;;
56730;SDS011;42613;47.424;8.560;2023-06-10T14:49:00;5.05;;;2.92;;
56730;SDS011;42613;47.424;8.560;2023-06-10T14:51:27;7.45;;;2.40;;
56730;SDS011;42613;47.424;8.560;2023-06-10T14:53:52;3.22;;;2.92;;
56730;SDS011;42613;47.424;8.560;2023-06-10T14:56:18;2.80;;;2.60;;
56730;SDS011;42613;47.424;8.560;2023-06-10T14:58:43;4.23;;;2.77;;
56730;SDS011;42613;47.424;8.560;2023-06-10T15:01:08;6.53;;;3.10;;
56730;SDS011;42613;47.424;8.560;2023-06-10T15:03:34;3.17;;;2.80;;
56730;SDS011;42613;47.424;8.560;2023-06-10T15:06:00;3.47;;;3.17;;